sensor_id;sensor_type;location;lat;lon;timestamp;P1;durP1;ratioP1;P2;durP2;ratioP2
23163;SDS011;31429;42.674;23.350;2022-07-22T00:00:50;9.77;;;6.53;;
23163;SDS011;31429;42.674;23.350;2022-07-22T00:01:51;12.17;;;7.00;;
23163;SDS011;31429;42.674;23.350;2022-07-22T00:02:52;10.90;;;6.90;;
23163;SDS011;31429;42.674;23.350;2022-07-22T00:03:53;10.47;;;7.10;;
23163;SDS011;31429;42.674;23.350;2022-07-22T00:04:54;11.47;;;7.00;;
23163;SDS011;31429;42.674;23.350;2022-07-22T00:05:54;11.10;;;7.37;;
23163;SDS011;31429;42.674;23.350;2022-07-22T00:06:55;13.13;;;7.20;;
23163;SDS011;31429;42.674;23.350;2022-07-22T00:07:57;9.57;;;6.80;;
23163;SDS011;31429;42.674;23.350;2022-07-22T00:08:58;9.10;;;6.73;;
23163;SDS011;31429;42.674;23.350;2022-07-22T00:09:59;14.93;;;8.00;;
23163;SDS011;31429;42.674;23.350;2022-07-22T00:10:59;14.88;;;9.27;;
23163;SDS011;31429;42.674;23.350;2022-07-22T00:12:00;16.60;;;9.43;;
23163;SDS011;31429;42.674;23.350;2022-07-22T00:13:01;14.23;;;7.60;;
23163;SDS011;31429;42.674;23.350;2022-07-22T00:14:02;10.70;;;7.27;;
23163;SDS011;31429;42.674;23.350;2022-07-22T00:15:03;11.07;;;7.33;;
23163;SDS011;31429;42.674;23.350;2022-07-22T00:16:05;8.57;;;6.97;;
23163;SDS011;31429;42.674;23.350;2022-07-22T00:17:06;11.27;;;7.00;;
23163;SDS011;31429;42.674;23.350;2022-07-22T00:18:07;9.43;;;7.50;;
23163;SDS011;31429;42.674;23.350;2022-07-22T00:19:08;11.37;;;6.83;;
23163;SDS011;31429;42.674;23.350;2022-07-22T00:20:09;9.13;;;7.00;;
23163;SDS011;31429;42.674;23.350;2022-07-22T00:21:10;8.03;;;6.80;;
23163;SDS011;31429;42.674;23.350;2022-07-22T00:22:10;13.13;;;6.83;;
23163;SDS011;31429;42.674;23.350;2022-07-22T00:23:12;11.27;;;7.00;;
23163;SDS011;31429;42.674;23.350;2022-07-22T00:24:13;13.93;;;7.20;;
23163;SDS011;31429;42.674;23.350;2022-07-22T00:25:14;9.77;;;6.67;;
23163;SDS011;31429;42.674;23.350;2022-07-22T00:26:15;9.87;;;6.83;;
23163;SDS011;31429;42.674;23.350;2022-07-22T00:27:15;13.27;;;7.20;;
23163;SDS011;31429;42.674;23.350;2022-07-22T00:28:16;14.70;;;6.40;;
23163;SDS011;31429;42.674;23.350;2022-07-22T00:29:17;12.20;;;6.90;;
23163;SDS011;31429;42.674;23.350;2022-07-22T00:30:17;10.97;;;6.97;;
23163;SDS011;31429;42.674;23.350;2022-07-22T00:31:18;11.87;;;6.93;;
23163;SDS011;31429;42.674;23.350;2022-07-22T00:32:19;10.63;;;6.70;;
23163;SDS011;31429;42.674;23.350;2022-07-22T00:33:19;8.17;;;6.57;;
23163;SDS011;31429;42.674;23.350;2022-07-22T00:34:20;9.80;;;6.30;;
23163;SDS011;31429;42.674;23.350;2022-07-22T00:35:21;11.73;;;6.77;;
23163;SDS011;31429;42.674;23.350;2022-07-22T00:36:22;7.40;;;6.17;;
23163;SDS011;31429;42.674;23.350;2022-07-22T00:37:23;10.05;;;6.43;;
23163;SDS011;31429;42.674;23.350;2022-07-22T00:38:25;11.77;;;6.13;;
23163;SDS011;31429;42.674;23.350;2022-07-22T00:39:26;9.38;;;6.50;;
23163;SDS011;31429;42.674;23.350;2022-07-22T00:40:27;10.85;;;6.00;;
23163;SDS011;31429;42.674;23.350;2022-07-22T00:41:28;8.57;;;6.30;;
23163;SDS011;31429;42.674;23.350;2022-07-22T00:42:28;8.07;;;6.47;;
23163;SDS011;31429;42.674;23.350;2022-07-22T00:44:52;11.23;;;6.43;;
23163;SDS011;31429;42.674;23.350;2022-07-22T00:45:52;7.77;;;6.00;;
23163;SDS011;31429;42.674;23.350;2022-07-22T00:46:53;8.50;;;6.13;;
23163;SDS011;31429;42.674;23.350;2022-07-22T00:47:54;8.85;;;5.30;;
23163;SDS011;31429;42.674;23.350;2022-07-22T00:48:55;9.63;;;6.50;;
23163;SDS011;31429;42.674;23.350;2022-07-22T00:49:56;8.27;;;5.75;;
23163;SDS011;31429;42.674;23.350;2022-07-22T00:50:57;6.20;;;5.60;;
23163;SDS011;31429;42.674;23.350;2022-07-22T00:51:57;6.22;;;5.43;;
23163;SDS011;31429;42.674;23.350;2022-07-22T00:52:58;7.28;;;5.30;;
23163;SDS011;31429;42.674;23.350;2022-07-22T00:54:01;6.88;;;5.97;;
23163;SDS011;31429;42.674;23.350;2022-07-22T00:55:04;6.95;;;6.07;;
23163;SDS011;31429;42.674;23.350;2022-07-22T00:56:06;7.43;;;5.45;;
23163;SDS011;31429;42.674;23.350;2022-07-22T00:57:07;10.63;;;4.95;;
23163;SDS011;31429;42.674;23.350;2022-07-22T00:58:07;10.30;;;5.50;;
23163;SDS011;31429;42.674;23.350;2022-07-22T00:59:10;7.95;;;5.65;;
23163;SDS011;31429;42.674;23.350;2022-07-22T01:00:13;7.90;;;5.43;;
23163;SDS011;31429;42.674;23.350;2022-07-22T01:01:15;8.50;;;5.47;;
23163;SDS011;31429;42.674;23.350;2022-07-22T01:02:16;10.30;;;6.20;;
23163;SDS011;31429;42.674;23.350;2022-07-22T01:03:17;9.32;;;5.75;;
23163;SDS011;31429;42.674;23.350;2022-07-22T01:04:18;7.35;;;5.78;;
23163;SDS011;31429;42.674;23.350;2022-07-22T01:05:19;8.88;;;5.35;;
23163;SDS011;31429;42.674;23.350;2022-07-22T01:06:19;8.70;;;5.50;;
23163;SDS011;31429;42.674;23.350;2022-07-22T01:07:20;9.30;;;5.63;;
23163;SDS011;31429;42.674;23.350;2022-07-22T01:08:21;8.83;;;5.53;;
23163;SDS011;31429;42.674;23.350;2022-07-22T01:09:23;6.77;;;5.33;;
23163;SDS011;31429;42.674;23.350;2022-07-22T01:10:24;6.93;;;5.55;;
23163;SDS011;31429;42.674;23.350;2022-07-22T01:11:25;7.07;;;5.47;;
23163;SDS011;31429;42.674;23.350;2022-07-22T01:12:26;7.25;;;5.45;;
23163;SDS011;31429;42.674;23.350;2022-07-22T01:13:27;5.75;;;5.05;;
23163;SDS011;31429;42.674;23.350;2022-07-22T01:14:28;9.63;;;5.90;;
23163;SDS011;31429;42.674;23.350;2022-07-22T01:15:29;9.10;;;5.63;;
23163;SDS011;31429;42.674;23.350;2022-07-22T01:16:30;9.30;;;5.53;;
23163;SDS011;31429;42.674;23.350;2022-07-22T01:17:31;8.93;;;4.77;;
23163;SDS011;31429;42.674;23.350;2022-07-22T01:18:32;9.27;;;5.50;;
23163;SDS011;31429;42.674;23.350;2022-07-22T01:19:34;6.97;;;5.15;;
23163;SDS011;31429;42.674;23.350;2022-07-22T01:20:37;7.15;;;5.13;;
23163;SDS011;31429;42.674;23.350;2022-07-22T01:21:37;6.95;;;5.32;;
23163;SDS011;31429;42.674;23.350;2022-07-22T01:22:38;9.68;;;5.55;;
23163;SDS011;31429;42.674;23.350;2022-07-22T01:23:39;10.32;;;5.25;;
23163;SDS011;31429;42.674;23.350;2022-07-22T01:24:41;7.30;;;5.13;;
23163;SDS011;31429;42.674;23.350;2022-07-22T01:25:41;9.13;;;5.65;;
23163;SDS011;31429;42.674;23.350;2022-07-22T01:26:42;6.37;;;5.17;;
23163;SDS011;31429;42.674;23.350;2022-07-22T01:27:43;9.95;;;5.10;;
23163;SDS011;31429;42.674;23.350;2022-07-22T01:28:44;5.97;;;4.95;;
23163;SDS011;31429;42.674;23.350;2022-07-22T01:29:45;5.43;;;4.82;;
23163;SDS011;31429;42.674;23.350;2022-07-22T01:30:45;8.90;;;5.53;;
23163;SDS011;31429;42.674;23.350;2022-07-22T01:31:46;7.82;;;5.05;;
23163;SDS011;31429;42.674;23.350;2022-07-22T01:32:47;9.35;;;5.40;;
23163;SDS011;31429;42.674;23.350;2022-07-22T01:33:48;7.70;;;5.05;;
23163;SDS011;31429;42.674;23.350;2022-07-22T01:34:48;9.18;;;5.45;;
23163;SDS011;31429;42.674;23.350;2022-07-22T01:35:51;7.88;;;5.25;;
23163;SDS011;31429;42.674;23.350;2022-07-22T01:36:52;8.38;;;5.05;;
23163;SDS011;31429;42.674;23.350;2022-07-22T01:37:52;5.55;;;4.95;;
23163;SDS011;31429;42.674;23.350;2022-07-22T01:38:53;10.82;;;5.55;;
23163;SDS011;31429;42.674;23.350;2022-07-22T01:39:54;8.15;;;5.10;;
23163;SDS011;31429;42.674;23.350;2022-07-22T01:40:55;7.05;;;5.68;;
23163;SDS011;31429;42.674;23.350;2022-07-22T01:41:56;8.40;;;5.57;;
23163;SDS011;31429;42.674;23.350;2022-07-22T01:42:56;6.40;;;5.28;;
23163;SDS011;31429;42.674;23.350;2022-07-22T01:43:57;9.73;;;5.67;;
23163;SDS011;31429;42.674;23.350;2022-07-22T01:44:58;8.70;;;5.60;;
23163;SDS011;31429;42.674;23.350;2022-07-22T01:45:58;8.90;;;5.40;;
23163;SDS011;31429;42.674;23.350;2022-07-22T01:46:59;9.43;;;5.90;;
23163;SDS011;31429;42.674;23.350;2022-07-22T01:48:00;7.23;;;5.20;;
23163;SDS011;31429;42.674;23.350;2022-07-22T01:49:01;9.82;;;5.00;;
23163;SDS011;31429;42.674;23.350;2022-07-22T01:50:03;6.20;;;5.40;;
23163;SDS011;31429;42.674;23.350;2022-07-22T01:51:06;5.53;;;4.97;;
23163;SDS011;31429;42.674;23.350;2022-07-22T01:52:07;9.10;;;5.40;;
23163;SDS011;31429;42.674;23.350;2022-07-22T01:53:08;9.80;;;4.93;;
23163;SDS011;31429;42.674;23.350;2022-07-22T01:54:08;7.05;;;5.22;;
23163;SDS011;31429;42.674;23.350;2022-07-22T01:55:09;5.93;;;5.32;;
23163;SDS011;31429;42.674;23.350;2022-07-22T01:56:12;6.57;;;5.72;;
23163;SDS011;31429;42.674;23.350;2022-07-22T01:57:13;8.65;;;5.45;;
23163;SDS011;31429;42.674;23.350;2022-07-22T01:58:14;5.90;;;5.03;;
23163;SDS011;31429;42.674;23.350;2022-07-22T01:59:14;6.47;;;5.57;;
23163;SDS011;31429;42.674;23.350;2022-07-22T02:00:15;6.53;;;5.63;;
23163;SDS011;31429;42.674;23.350;2022-07-22T02:01:17;7.53;;;6.00;;
23163;SDS011;31429;42.674;23.350;2022-07-22T02:02:17;9.03;;;5.97;;
23163;SDS011;31429;42.674;23.350;2022-07-22T02:03:18;7.57;;;5.90;;
23163;SDS011;31429;42.674;23.350;2022-07-22T02:04:19;7.07;;;5.60;;
23163;SDS011;31429;42.674;23.350;2022-07-22T02:05:19;8.67;;;5.83;;
23163;SDS011;31429;42.674;23.350;2022-07-22T02:06:21;10.37;;;5.93;;
23163;SDS011;31429;42.674;23.350;2022-07-22T02:07:22;10.30;;;6.23;;
23163;SDS011;31429;42.674;23.350;2022-07-22T02:08:24;8.37;;;5.33;;
23163;SDS011;31429;42.674;23.350;2022-07-22T02:09:25;7.93;;;5.23;;
23163;SDS011;31429;42.674;23.350;2022-07-22T02:10:26;5.77;;;5.23;;
23163;SDS011;31429;42.674;23.350;2022-07-22T02:11:26;9.13;;;5.60;;
23163;SDS011;31429;42.674;23.350;2022-07-22T02:12:27;6.97;;;5.50;;
23163;SDS011;31429;42.674;23.350;2022-07-22T02:13:28;7.53;;;5.67;;
23163;SDS011;31429;42.674;23.350;2022-07-22T02:14:28;6.97;;;5.83;;
23163;SDS011;31429;42.674;23.350;2022-07-22T02:15:29;8.13;;;5.90;;
23163;SDS011;31429;42.674;23.350;2022-07-22T02:16:30;7.80;;;5.60;;
23163;SDS011;31429;42.674;23.350;2022-07-22T02:17:32;7.53;;;5.30;;
23163;SDS011;31429;42.674;23.350;2022-07-22T02:18:32;7.70;;;5.97;;
23163;SDS011;31429;42.674;23.350;2022-07-22T02:19:33;7.37;;;5.70;;
23163;SDS011;31429;42.674;23.350;2022-07-22T02:20:34;8.40;;;6.57;;
23163;SDS011;31429;42.674;23.350;2022-07-22T02:21:36;10.43;;;5.83;;
23163;SDS011;31429;42.674;23.350;2022-07-22T02:22:37;9.67;;;6.17;;
23163;SDS011;31429;42.674;23.350;2022-07-22T02:23:38;10.50;;;5.90;;
23163;SDS011;31429;42.674;23.350;2022-07-22T02:24:39;8.10;;;5.70;;
23163;SDS011;31429;42.674;23.350;2022-07-22T02:25:40;6.17;;;5.57;;
23163;SDS011;31429;42.674;23.350;2022-07-22T02:26:41;7.37;;;5.50;;
23163;SDS011;31429;42.674;23.350;2022-07-22T02:27:42;6.10;;;5.50;;
23163;SDS011;31429;42.674;23.350;2022-07-22T02:28:43;6.60;;;5.90;;
23163;SDS011;31429;42.674;23.350;2022-07-22T02:29:45;9.80;;;6.27;;
23163;SDS011;31429;42.674;23.350;2022-07-22T02:30:46;11.47;;;5.50;;
23163;SDS011;31429;42.674;23.350;2022-07-22T02:31:46;11.00;;;6.27;;
23163;SDS011;31429;42.674;23.350;2022-07-22T02:32:47;9.20;;;5.37;;
23163;SDS011;31429;42.674;23.350;2022-07-22T02:33:48;10.13;;;6.40;;
23163;SDS011;31429;42.674;23.350;2022-07-22T02:34:48;10.70;;;6.73;;
23163;SDS011;31429;42.674;23.350;2022-07-22T02:35:49;8.40;;;5.97;;
23163;SDS011;31429;42.674;23.350;2022-07-22T02:36:51;6.37;;;5.77;;
23163;SDS011;31429;42.674;23.350;2022-07-22T02:37:53;9.77;;;6.10;;
23163;SDS011;31429;42.674;23.350;2022-07-22T02:38:54;7.17;;;6.23;;
23163;SDS011;31429;42.674;23.350;2022-07-22T02:39:55;8.27;;;6.07;;
23163;SDS011;31429;42.674;23.350;2022-07-22T02:40:55;9.25;;;6.18;;
23163;SDS011;31429;42.674;23.350;2022-07-22T02:41:56;8.52;;;6.10;;
23163;SDS011;31429;42.674;23.350;2022-07-22T02:42:57;8.33;;;5.80;;
23163;SDS011;31429;42.674;23.350;2022-07-22T02:43:58;7.90;;;6.30;;
23163;SDS011;31429;42.674;23.350;2022-07-22T02:44:58;9.47;;;6.20;;
23163;SDS011;31429;42.674;23.350;2022-07-22T02:45:59;10.43;;;6.47;;
23163;SDS011;31429;42.674;23.350;2022-07-22T02:47:00;7.73;;;6.40;;
23163;SDS011;31429;42.674;23.350;2022-07-22T02:48:01;7.47;;;5.57;;
23163;SDS011;31429;42.674;23.350;2022-07-22T02:49:02;7.97;;;6.00;;
23163;SDS011;31429;42.674;23.350;2022-07-22T02:50:04;9.43;;;6.23;;
23163;SDS011;31429;42.674;23.350;2022-07-22T02:51:05;8.87;;;6.30;;
23163;SDS011;31429;42.674;23.350;2022-07-22T02:52:07;9.17;;;5.90;;
23163;SDS011;31429;42.674;23.350;2022-07-22T02:53:08;9.00;;;6.07;;
23163;SDS011;31429;42.674;23.350;2022-07-22T02:54:08;7.00;;;6.30;;
23163;SDS011;31429;42.674;23.350;2022-07-22T02:55:09;10.27;;;6.30;;
23163;SDS011;31429;42.674;23.350;2022-07-22T02:56:10;7.77;;;6.03;;
23163;SDS011;31429;42.674;23.350;2022-07-22T02:57:11;9.13;;;6.47;;
23163;SDS011;31429;42.674;23.350;2022-07-22T02:58:11;7.77;;;6.57;;
23163;SDS011;31429;42.674;23.350;2022-07-22T02:59:12;7.67;;;6.87;;
23163;SDS011;31429;42.674;23.350;2022-07-22T03:00:13;11.50;;;6.70;;
23163;SDS011;31429;42.674;23.350;2022-07-22T03:01:14;6.97;;;6.37;;
23163;SDS011;31429;42.674;23.350;2022-07-22T03:02:15;6.63;;;5.60;;
23163;SDS011;31429;42.674;23.350;2022-07-22T03:03:16;7.20;;;6.20;;
23163;SDS011;31429;42.674;23.350;2022-07-22T03:04:16;6.20;;;5.60;;
23163;SDS011;31429;42.674;23.350;2022-07-22T03:05:17;9.03;;;6.60;;
23163;SDS011;31429;42.674;23.350;2022-07-22T03:06:18;9.77;;;7.30;;
23163;SDS011;31429;42.674;23.350;2022-07-22T03:07:22;7.97;;;5.97;;
23163;SDS011;31429;42.674;23.350;2022-07-22T03:08:23;9.80;;;6.13;;
23163;SDS011;31429;42.674;23.350;2022-07-22T03:09:23;7.03;;;6.33;;
23163;SDS011;31429;42.674;23.350;2022-07-22T03:10:24;7.43;;;6.57;;
23163;SDS011;31429;42.674;23.350;2022-07-22T03:11:25;9.63;;;6.20;;
23163;SDS011;31429;42.674;23.350;2022-07-22T03:12:25;9.33;;;6.80;;
23163;SDS011;31429;42.674;23.350;2022-07-22T03:13:26;8.60;;;6.57;;
23163;SDS011;31429;42.674;23.350;2022-07-22T03:14:27;7.73;;;6.00;;
23163;SDS011;31429;42.674;23.350;2022-07-22T03:15:27;7.20;;;6.50;;
23163;SDS011;31429;42.674;23.350;2022-07-22T03:16:28;8.30;;;6.57;;
23163;SDS011;31429;42.674;23.350;2022-07-22T03:17:30;8.17;;;6.30;;
23163;SDS011;31429;42.674;23.350;2022-07-22T03:18:33;7.80;;;6.73;;
23163;SDS011;31429;42.674;23.350;2022-07-22T03:19:34;9.93;;;7.43;;
23163;SDS011;31429;42.674;23.350;2022-07-22T03:20:35;9.17;;;7.10;;
23163;SDS011;31429;42.674;23.350;2022-07-22T03:21:36;9.27;;;7.30;;
23163;SDS011;31429;42.674;23.350;2022-07-22T03:22:38;9.87;;;7.07;;
23163;SDS011;31429;42.674;23.350;2022-07-22T03:23:39;8.13;;;6.90;;
23163;SDS011;31429;42.674;23.350;2022-07-22T03:24:40;8.10;;;6.70;;
23163;SDS011;31429;42.674;23.350;2022-07-22T03:25:40;11.37;;;7.30;;
23163;SDS011;31429;42.674;23.350;2022-07-22T03:26:41;10.10;;;6.53;;
23163;SDS011;31429;42.674;23.350;2022-07-22T03:27:42;10.03;;;7.27;;
23163;SDS011;31429;42.674;23.350;2022-07-22T03:28:42;11.43;;;6.90;;
23163;SDS011;31429;42.674;23.350;2022-07-22T03:29:43;11.23;;;7.50;;
23163;SDS011;31429;42.674;23.350;2022-07-22T03:30:44;8.10;;;6.77;;
23163;SDS011;31429;42.674;23.350;2022-07-22T03:31:45;12.60;;;7.90;;
23163;SDS011;31429;42.674;23.350;2022-07-22T03:32:45;9.90;;;7.33;;
23163;SDS011;31429;42.674;23.350;2022-07-22T03:33:46;9.13;;;7.17;;
23163;SDS011;31429;42.674;23.350;2022-07-22T03:34:47;9.80;;;7.80;;
23163;SDS011;31429;42.674;23.350;2022-07-22T03:35:48;9.87;;;7.87;;
23163;SDS011;31429;42.674;23.350;2022-07-22T03:36:49;8.70;;;7.53;;
23163;SDS011;31429;42.674;23.350;2022-07-22T03:37:51;9.30;;;7.53;;
23163;SDS011;31429;42.674;23.350;2022-07-22T03:38:52;12.77;;;8.27;;
23163;SDS011;31429;42.674;23.350;2022-07-22T03:39:52;10.83;;;7.97;;
23163;SDS011;31429;42.674;23.350;2022-07-22T03:40:53;10.03;;;8.00;;
23163;SDS011;31429;42.674;23.350;2022-07-22T03:41:55;9.83;;;7.67;;
23163;SDS011;31429;42.674;23.350;2022-07-22T03:42:56;12.93;;;8.10;;
23163;SDS011;31429;42.674;23.350;2022-07-22T03:43:57;13.53;;;8.23;;
23163;SDS011;31429;42.674;23.350;2022-07-22T03:44:57;12.97;;;8.30;;
23163;SDS011;31429;42.674;23.350;2022-07-22T03:45:58;13.63;;;7.90;;
23163;SDS011;31429;42.674;23.350;2022-07-22T03:46:59;13.20;;;7.73;;
23163;SDS011;31429;42.674;23.350;2022-07-22T03:48:00;8.90;;;8.07;;
23163;SDS011;31429;42.674;23.350;2022-07-22T03:49:01;11.37;;;8.30;;
23163;SDS011;31429;42.674;23.350;2022-07-22T03:50:02;9.43;;;7.70;;
23163;SDS011;31429;42.674;23.350;2022-07-22T03:51:03;9.03;;;7.60;;
23163;SDS011;31429;42.674;23.350;2022-07-22T03:52:04;16.37;;;7.60;;
23163;SDS011;31429;42.674;23.350;2022-07-22T03:53:06;12.10;;;8.20;;
23163;SDS011;31429;42.674;23.350;2022-07-22T03:54:07;9.77;;;7.57;;
23163;SDS011;31429;42.674;23.350;2022-07-22T03:55:08;14.67;;;8.10;;
23163;SDS011;31429;42.674;23.350;2022-07-22T03:56:08;14.23;;;9.40;;
23163;SDS011;31429;42.674;23.350;2022-07-22T03:57:09;12.30;;;8.73;;
23163;SDS011;31429;42.674;23.350;2022-07-22T03:58:10;12.73;;;9.10;;
23163;SDS011;31429;42.674;23.350;2022-07-22T03:59:11;12.30;;;8.30;;
23163;SDS011;31429;42.674;23.350;2022-07-22T04:00:12;12.53;;;8.03;;
23163;SDS011;31429;42.674;23.350;2022-07-22T04:01:13;11.10;;;8.10;;
23163;SDS011;31429;42.674;23.350;2022-07-22T04:02:13;11.73;;;7.80;;
23163;SDS011;31429;42.674;23.350;2022-07-22T04:03:14;9.23;;;8.13;;
23163;SDS011;31429;42.674;23.350;2022-07-22T04:04:15;16.10;;;8.90;;
23163;SDS011;31429;42.674;23.350;2022-07-22T04:05:16;13.57;;;8.63;;
23163;SDS011;31429;42.674;23.350;2022-07-22T04:06:16;9.70;;;7.80;;
23163;SDS011;31429;42.674;23.350;2022-07-22T04:07:17;12.50;;;8.10;;
23163;SDS011;31429;42.674;23.350;2022-07-22T04:08:19;11.23;;;8.20;;
23163;SDS011;31429;42.674;23.350;2022-07-22T04:09:20;10.07;;;8.23;;
23163;SDS011;31429;42.674;23.350;2022-07-22T04:10:21;10.43;;;8.07;;
23163;SDS011;31429;42.674;23.350;2022-07-22T04:11:22;13.50;;;8.30;;
23163;SDS011;31429;42.674;23.350;2022-07-22T04:12:22;10.27;;;8.97;;
23163;SDS011;31429;42.674;23.350;2022-07-22T04:13:23;12.83;;;8.50;;
23163;SDS011;31429;42.674;23.350;2022-07-22T04:14:24;11.70;;;8.67;;
23163;SDS011;31429;42.674;23.350;2022-07-22T04:15:24;11.03;;;8.60;;
23163;SDS011;31429;42.674;23.350;2022-07-22T04:16:25;13.77;;;8.87;;
23163;SDS011;31429;42.674;23.350;2022-07-22T04:17:26;18.37;;;8.60;;
23163;SDS011;31429;42.674;23.350;2022-07-22T04:18:26;13.27;;;8.33;;
23163;SDS011;31429;42.674;23.350;2022-07-22T04:19:29;11.70;;;8.70;;
23163;SDS011;31429;42.674;23.350;2022-07-22T04:20:30;13.13;;;8.07;;
23163;SDS011;31429;42.674;23.350;2022-07-22T04:21:31;12.53;;;7.83;;
23163;SDS011;31429;42.674;23.350;2022-07-22T04:22:31;13.40;;;8.43;;
23163;SDS011;31429;42.674;23.350;2022-07-22T04:23:34;11.47;;;7.97;;
23163;SDS011;31429;42.674;23.350;2022-07-22T04:24:34;14.80;;;8.53;;
23163;SDS011;31429;42.674;23.350;2022-07-22T04:25:35;13.50;;;8.33;;
23163;SDS011;31429;42.674;23.350;2022-07-22T04:26:36;14.97;;;8.57;;
23163;SDS011;31429;42.674;23.350;2022-07-22T04:27:36;14.93;;;8.50;;
23163;SDS011;31429;42.674;23.350;2022-07-22T04:28:37;12.93;;;9.27;;
23163;SDS011;31429;42.674;23.350;2022-07-22T04:29:38;14.00;;;8.33;;
23163;SDS011;31429;42.674;23.350;2022-07-22T04:30:38;11.50;;;8.27;;
23163;SDS011;31429;42.674;23.350;2022-07-22T04:31:39;11.87;;;8.43;;
23163;SDS011;31429;42.674;23.350;2022-07-22T04:32:40;14.87;;;8.07;;
23163;SDS011;31429;42.674;23.350;2022-07-22T04:33:40;14.00;;;8.30;;
23163;SDS011;31429;42.674;23.350;2022-07-22T04:34:41;14.73;;;8.50;;
23163;SDS011;31429;42.674;23.350;2022-07-22T04:35:42;13.50;;;7.67;;
23163;SDS011;31429;42.674;23.350;2022-07-22T04:36:43;17.10;;;8.67;;
23163;SDS011;31429;42.674;23.350;2022-07-22T04:37:44;11.90;;;8.43;;
23163;SDS011;31429;42.674;23.350;2022-07-22T04:38:46;12.97;;;8.53;;
23163;SDS011;31429;42.674;23.350;2022-07-22T04:39:47;14.07;;;8.60;;
23163;SDS011;31429;42.674;23.350;2022-07-22T04:40:47;10.53;;;7.83;;
23163;SDS011;31429;42.674;23.350;2022-07-22T04:41:48;15.63;;;8.37;;
23163;SDS011;31429;42.674;23.350;2022-07-22T04:42:49;17.87;;;8.97;;
23163;SDS011;31429;42.674;23.350;2022-07-22T04:43:49;14.67;;;8.40;;
23163;SDS011;31429;42.674;23.350;2022-07-22T04:44:50;16.03;;;8.53;;
23163;SDS011;31429;42.674;23.350;2022-07-22T04:45:51;13.17;;;8.33;;
23163;SDS011;31429;42.674;23.350;2022-07-22T04:46:52;17.17;;;9.23;;
23163;SDS011;31429;42.674;23.350;2022-07-22T04:47:52;12.77;;;8.67;;
23163;SDS011;31429;42.674;23.350;2022-07-22T04:48:53;16.70;;;9.03;;
23163;SDS011;31429;42.674;23.350;2022-07-22T04:49:54;14.00;;;8.97;;
23163;SDS011;31429;42.674;23.350;2022-07-22T04:50:57;11.10;;;8.20;;
23163;SDS011;31429;42.674;23.350;2022-07-22T04:51:59;11.80;;;8.43;;
23163;SDS011;31429;42.674;23.350;2022-07-22T04:53:00;16.87;;;8.70;;
23163;SDS011;31429;42.674;23.350;2022-07-22T04:54:02;16.20;;;8.93;;
23163;SDS011;31429;42.674;23.350;2022-07-22T04:55:02;14.60;;;9.27;;
23163;SDS011;31429;42.674;23.350;2022-07-22T04:56:04;15.67;;;9.60;;
23163;SDS011;31429;42.674;23.350;2022-07-22T04:57:05;17.70;;;8.90;;
23163;SDS011;31429;42.674;23.350;2022-07-22T04:58:06;12.33;;;10.07;;
23163;SDS011;31429;42.674;23.350;2022-07-22T04:59:07;12.77;;;9.60;;
23163;SDS011;31429;42.674;23.350;2022-07-22T05:00:08;11.97;;;9.00;;
23163;SDS011;31429;42.674;23.350;2022-07-22T05:01:09;15.40;;;9.07;;
23163;SDS011;31429;42.674;23.350;2022-07-22T05:02:10;15.00;;;9.60;;
23163;SDS011;31429;42.674;23.350;2022-07-22T05:03:11;21.60;;;9.60;;
23163;SDS011;31429;42.674;23.350;2022-07-22T05:04:11;13.07;;;8.30;;
23163;SDS011;31429;42.674;23.350;2022-07-22T05:05:12;17.67;;;9.83;;
23163;SDS011;31429;42.674;23.350;2022-07-22T05:06:13;14.33;;;9.27;;
23163;SDS011;31429;42.674;23.350;2022-07-22T05:07:13;14.03;;;9.23;;
23163;SDS011;31429;42.674;23.350;2022-07-22T05:08:14;16.00;;;9.00;;
23163;SDS011;31429;42.674;23.350;2022-07-22T05:09:16;13.57;;;9.03;;
23163;SDS011;31429;42.674;23.350;2022-07-22T05:10:17;11.60;;;8.93;;
23163;SDS011;31429;42.674;23.350;2022-07-22T05:11:18;14.50;;;9.27;;
23163;SDS011;31429;42.674;23.350;2022-07-22T05:12:19;12.97;;;8.90;;
23163;SDS011;31429;42.674;23.350;2022-07-22T05:13:19;13.77;;;8.70;;
23163;SDS011;31429;42.674;23.350;2022-07-22T05:14:20;11.87;;;8.50;;
23163;SDS011;31429;42.674;23.350;2022-07-22T05:15:21;14.80;;;8.13;;
23163;SDS011;31429;42.674;23.350;2022-07-22T05:16:22;15.53;;;9.03;;
23163;SDS011;31429;42.674;23.350;2022-07-22T05:17:22;13.37;;;9.00;;
23163;SDS011;31429;42.674;23.350;2022-07-22T05:18:23;14.33;;;8.37;;
23163;SDS011;31429;42.674;23.350;2022-07-22T05:19:24;17.57;;;8.33;;
23163;SDS011;31429;42.674;23.350;2022-07-22T05:20:24;13.27;;;8.97;;
23163;SDS011;31429;42.674;23.350;2022-07-22T05:21:25;11.07;;;8.90;;
23163;SDS011;31429;42.674;23.350;2022-07-22T05:22:26;14.87;;;7.80;;
23163;SDS011;31429;42.674;23.350;2022-07-22T05:23:27;14.50;;;7.63;;
23163;SDS011;31429;42.674;23.350;2022-07-22T05:24:29;14.63;;;8.23;;
23163;SDS011;31429;42.674;23.350;2022-07-22T05:25:29;20.60;;;9.50;;
23163;SDS011;31429;42.674;23.350;2022-07-22T05:26:30;14.50;;;7.83;;
23163;SDS011;31429;42.674;23.350;2022-07-22T05:27:33;13.23;;;9.03;;
23163;SDS011;31429;42.674;23.350;2022-07-22T05:28:34;16.33;;;7.87;;
23163;SDS011;31429;42.674;23.350;2022-07-22T05:29:34;15.03;;;7.97;;
23163;SDS011;31429;42.674;23.350;2022-07-22T05:30:35;18.40;;;8.50;;
23163;SDS011;31429;42.674;23.350;2022-07-22T05:31:36;15.50;;;8.80;;
23163;SDS011;31429;42.674;23.350;2022-07-22T05:32:36;19.07;;;8.07;;
23163;SDS011;31429;42.674;23.350;2022-07-22T05:33:37;17.23;;;7.97;;
23163;SDS011;31429;42.674;23.350;2022-07-22T05:34:38;11.03;;;7.40;;
23163;SDS011;31429;42.674;23.350;2022-07-22T05:35:38;12.40;;;7.73;;
23163;SDS011;31429;42.674;23.350;2022-07-22T05:36:39;10.43;;;8.33;;
23163;SDS011;31429;42.674;23.350;2022-07-22T05:37:40;12.60;;;8.77;;
23163;SDS011;31429;42.674;23.350;2022-07-22T05:38:41;10.50;;;8.30;;
23163;SDS011;31429;42.674;23.350;2022-07-22T05:39:43;14.23;;;9.17;;
23163;SDS011;31429;42.674;23.350;2022-07-22T05:40:44;16.30;;;8.20;;
23163;SDS011;31429;42.674;23.350;2022-07-22T05:41:44;12.67;;;8.13;;
23163;SDS011;31429;42.674;23.350;2022-07-22T05:42:45;15.97;;;8.87;;
23163;SDS011;31429;42.674;23.350;2022-07-22T05:43:46;15.00;;;8.47;;
23163;SDS011;31429;42.674;23.350;2022-07-22T05:44:46;13.20;;;8.83;;
23163;SDS011;31429;42.674;23.350;2022-07-22T05:45:47;16.50;;;8.60;;
23163;SDS011;31429;42.674;23.350;2022-07-22T05:46:48;16.83;;;8.83;;
23163;SDS011;31429;42.674;23.350;2022-07-22T05:47:48;12.73;;;7.80;;
23163;SDS011;31429;42.674;23.350;2022-07-22T05:48:49;10.00;;;7.43;;
23163;SDS011;31429;42.674;23.350;2022-07-22T05:49:50;12.90;;;7.60;;
23163;SDS011;31429;42.674;23.350;2022-07-22T05:50:51;15.23;;;8.90;;
23163;SDS011;31429;42.674;23.350;2022-07-22T05:51:51;13.77;;;8.37;;
23163;SDS011;31429;42.674;23.350;2022-07-22T05:52:52;11.83;;;8.23;;
23163;SDS011;31429;42.674;23.350;2022-07-22T05:53:53;20.63;;;9.43;;
23163;SDS011;31429;42.674;23.350;2022-07-22T05:54:55;17.33;;;7.90;;
23163;SDS011;31429;42.674;23.350;2022-07-22T05:55:59;12.67;;;8.07;;
23163;SDS011;31429;42.674;23.350;2022-07-22T05:56:59;11.20;;;8.27;;
23163;SDS011;31429;42.674;23.350;2022-07-22T05:58:00;13.60;;;8.60;;
23163;SDS011;31429;42.674;23.350;2022-07-22T05:59:01;13.83;;;8.90;;
23163;SDS011;31429;42.674;23.350;2022-07-22T06:00:02;11.10;;;7.80;;
23163;SDS011;31429;42.674;23.350;2022-07-22T06:01:03;16.90;;;8.10;;